createdAt,value
2022-11-27T00:00:38.219Z,1024.54
2022-11-27T00:01:38.205Z,1024.53
2022-11-27T00:02:40.762Z,1024.57
2022-11-27T00:03:38.376Z,1024.51
2022-11-27T00:04:38.222Z,1024.56
2022-11-27T00:05:38.212Z,1024.53
2022-11-27T00:06:38.210Z,1024.54
2022-11-27T00:07:38.298Z,1024.58
2022-11-27T00:08:38.247Z,1024.53
2022-11-27T00:09:38.748Z,1024.48
2022-11-27T00:10:38.203Z,1024.52
2022-11-27T00:11:38.179Z,1024.54
2022-11-27T00:12:38.188Z,1024.50
2022-11-27T00:13:38.197Z,1024.49
2022-11-27T00:14:38.195Z,1024.50
2022-11-27T00:15:38.208Z,1024.46
2022-11-27T00:16:38.178Z,1024.47
2022-11-27T00:17:38.167Z,1024.45
2022-11-27T00:18:38.167Z,1024.43
2022-11-27T00:19:38.527Z,1024.44
2022-11-27T00:20:38.189Z,1024.47
2022-11-27T00:21:38.179Z,1024.44
2022-11-27T00:22:38.165Z,1024.48
2022-11-27T00:23:38.184Z,1024.43
2022-11-27T00:24:38.458Z,1024.43
2022-11-27T00:25:38.161Z,1024.43
2022-11-27T00:26:38.600Z,1024.48
2022-11-27T00:27:38.149Z,1024.46
2022-11-27T00:28:38.147Z,1024.45
2022-11-27T00:29:38.163Z,1024.45
2022-11-27T00:30:38.149Z,1024.46
2022-11-27T00:31:38.312Z,1024.44
2022-11-27T00:32:38.155Z,1024.48
2022-11-27T00:33:38.144Z,1024.43
2022-11-27T00:34:38.426Z,1024.49
2022-11-27T00:35:38.304Z,1024.47
2022-11-27T00:36:38.136Z,1024.46
2022-11-27T00:37:38.138Z,1024.49
2022-11-27T00:38:39.158Z,1024.49
2022-11-27T00:39:38.133Z,1024.48
2022-11-27T00:40:38.144Z,1024.51
2022-11-27T00:41:38.153Z,1024.51
2022-11-27T00:42:38.131Z,1024.53
2022-11-27T00:43:44.208Z,1024.55
2022-11-27T00:44:38.591Z,1024.49
2022-11-27T00:45:38.126Z,1024.54
2022-11-27T00:46:38.198Z,1024.52
2022-11-27T00:47:38.134Z,1024.49
2022-11-27T00:48:38.112Z,1024.50
2022-11-27T00:49:38.112Z,1024.46
2022-11-27T00:50:38.110Z,1024.44
2022-11-27T00:51:38.117Z,1024.38
2022-11-27T00:52:38.118Z,1024.39
2022-11-27T00:53:38.138Z,1024.38
2022-11-27T00:54:38.401Z,1024.39
2022-11-27T00:55:38.104Z,1024.42
2022-11-27T00:56:38.082Z,1024.40
2022-11-27T00:57:38.100Z,1024.41
2022-11-27T00:58:38.097Z,1024.43
2022-11-27T00:59:38.125Z,1024.47
2022-11-27T01:00:38.102Z,1024.40
2022-11-27T01:01:38.186Z,1024.49
2022-11-27T01:02:38.173Z,1024.45
2022-11-27T01:03:38.082Z,1024.39
2022-11-27T01:04:38.452Z,1024.40
2022-11-27T01:05:38.079Z,1024.37
2022-11-27T01:06:38.062Z,1024.41
2022-11-27T01:07:38.119Z,1024.36
2022-11-27T01:08:38.075Z,1024.33
2022-11-27T01:09:38.078Z,1024.32
2022-11-27T01:10:38.065Z,1024.35
2022-11-27T01:11:38.068Z,1024.33
2022-11-27T01:12:38.047Z,1024.32
2022-11-27T01:13:38.063Z,1024.29
2022-11-27T01:14:38.437Z,1024.25
2022-11-27T01:15:38.061Z,1024.25
2022-11-27T01:16:42.673Z,1024.21
2022-11-27T01:17:38.058Z,1024.14
2022-11-27T01:18:38.058Z,1024.10
2022-11-27T01:19:38.048Z,1024.16
2022-11-27T01:20:38.032Z,1024.14
2022-11-27T01:21:38.059Z,1024.15
2022-11-27T01:22:38.029Z,1024.15
2022-11-27T01:23:38.030Z,1024.16
2022-11-27T01:24:38.411Z,1024.19
2022-11-27T01:25:38.038Z,1024.19
2022-11-27T01:26:38.035Z,1024.18
2022-11-27T01:27:38.023Z,1024.16
2022-11-27T01:28:38.031Z,1024.16
2022-11-27T01:29:38.012Z,1024.18
2022-11-27T01:30:38.040Z,1024.15
2022-11-27T01:31:38.084Z,1024.19
2022-11-27T01:32:38.028Z,1024.20
2022-11-27T01:33:38.007Z,1024.18
2022-11-27T01:34:38.484Z,1024.18
2022-11-27T01:35:38.007Z,1024.15
2022-11-27T01:36:38.010Z,1024.09
2022-11-27T01:37:38.021Z,1024.08
2022-11-27T01:38:38.002Z,1024.05
2022-11-27T01:39:38.006Z,1024.07
2022-11-27T01:40:37.996Z,1024.06
2022-11-27T01:41:38.018Z,1024.02
2022-11-27T01:42:37.995Z,1023.99
2022-11-27T01:43:37.991Z,1023.99
2022-11-27T01:44:38.429Z,1023.93
2022-11-27T01:45:37.990Z,1023.93
2022-11-27T01:46:38.065Z,1023.87
2022-11-27T01:47:37.990Z,1023.92
2022-11-27T01:48:37.975Z,1023.86
2022-11-27T01:49:37.969Z,1023.87
2022-11-27T01:50:37.970Z,1023.87
2022-11-27T01:51:37.980Z,1023.82
2022-11-27T01:52:38.015Z,1023.85
2022-11-27T01:53:37.964Z,1023.82
2022-11-27T01:54:38.155Z,1023.80
2022-11-27T01:55:37.965Z,1023.83
2022-11-27T01:56:37.973Z,1023.77
2022-11-27T01:57:37.954Z,1023.75
2022-11-27T01:58:37.956Z,1023.79
2022-11-27T01:59:37.957Z,1023.78
2022-11-27T02:00:37.957Z,1023.72
2022-11-27T02:01:37.989Z,1023.71
2022-11-27T02:02:38.030Z,1023.68
2022-11-27T02:03:37.961Z,1023.67
2022-11-27T02:04:38.109Z,1023.67
2022-11-27T02:05:37.935Z,1023.63
2022-11-27T02:06:37.935Z,1023.69
2022-11-27T02:07:38.000Z,1023.64
2022-11-27T02:08:37.951Z,1023.65
2022-11-27T02:09:37.951Z,1023.65
2022-11-27T02:10:37.926Z,1023.66
2022-11-27T02:11:37.934Z,1023.65
2022-11-27T02:12:37.944Z,1023.59
2022-11-27T02:13:37.933Z,1023.61
2022-11-27T02:14:38.124Z,1023.61
2022-11-27T02:15:38.376Z,1023.60
2022-11-27T02:16:37.996Z,1023.61
2022-11-27T02:17:37.911Z,1023.61
2022-11-27T02:18:37.914Z,1023.67
2022-11-27T02:19:37.916Z,1023.68
2022-11-27T02:20:37.910Z,1023.67
2022-11-27T02:21:37.898Z,1023.73
2022-11-27T02:22:37.904Z,1023.66
2022-11-27T02:23:37.909Z,1023.71
2022-11-27T02:24:38.229Z,1023.68
2022-11-27T02:25:37.889Z,1023.68
2022-11-27T02:26:37.891Z,1023.65
2022-11-27T02:27:37.896Z,1023.67
2022-11-27T02:28:37.896Z,1023.71
2022-11-27T02:29:37.892Z,1023.69
2022-11-27T02:30:37.915Z,1023.69
2022-11-27T02:31:38.004Z,1023.69
2022-11-27T02:32:37.887Z,1023.75
2022-11-27T02:33:37.874Z,1023.75
2022-11-27T02:34:38.016Z,1023.70
2022-11-27T02:35:37.870Z,1023.77
2022-11-27T02:36:37.864Z,1023.76
2022-11-27T02:37:37.901Z,1023.80
2022-11-27T02:38:37.879Z,1023.79
2022-11-27T02:39:37.883Z,1023.78
2022-11-27T02:40:37.861Z,1023.80
2022-11-27T02:41:37.868Z,1023.76
2022-11-27T02:42:37.940Z,1023.78
2022-11-27T02:43:37.861Z,1023.78
2022-11-27T02:44:38.266Z,1023.81
2022-11-27T02:45:37.875Z,1023.79
2022-11-27T02:46:37.939Z,1023.78
2022-11-27T02:47:37.847Z,1023.78
2022-11-27T02:48:37.843Z,1023.82
2022-11-27T02:49:37.837Z,1023.86
2022-11-27T02:50:37.863Z,1023.85
2022-11-27T02:51:37.837Z,1023.85
2022-11-27T02:52:37.843Z,1023.80
2022-11-27T02:53:37.899Z,1023.80
2022-11-27T02:54:38.154Z,1023.80
2022-11-27T02:55:37.841Z,1023.82
2022-11-27T02:56:37.840Z,1023.83
2022-11-27T02:57:37.833Z,1023.82
2022-11-27T02:58:37.908Z,1023.86
2022-11-27T02:59:37.815Z,1023.81
2022-11-27T03:00:37.809Z,1023.84
2022-11-27T03:01:37.884Z,1023.78
2022-11-27T03:02:37.877Z,1023.81
2022-11-27T03:03:37.810Z,1023.80
2022-11-27T03:04:38.032Z,1023.81
2022-11-27T03:05:37.820Z,1023.81
2022-11-27T03:06:37.846Z,1023.74
2022-11-27T03:07:37.867Z,1023.73
2022-11-27T03:08:37.807Z,1023.69
2022-11-27T03:09:37.799Z,1023.71
2022-11-27T03:10:37.795Z,1023.66
2022-11-27T03:11:37.792Z,1023.69
2022-11-27T03:12:37.817Z,1023.65
2022-11-27T03:13:37.783Z,1023.63
2022-11-27T03:14:38.110Z,1023.59
2022-11-27T03:15:37.813Z,1023.59
2022-11-27T03:16:37.772Z,1023.59
2022-11-27T03:17:37.788Z,1023.60
2022-11-27T03:18:37.797Z,1023.58
2022-11-27T03:19:37.763Z,1023.60
2022-11-27T03:20:37.772Z,1023.61
2022-11-27T03:21:37.780Z,1023.59
2022-11-27T03:22:37.754Z,1023.54
2022-11-27T03:23:37.774Z,1023.56
2022-11-27T03:24:37.970Z,1023.56
2022-11-27T03:25:37.761Z,1023.55
2022-11-27T03:26:37.752Z,1023.55
2022-11-27T03:27:37.769Z,1023.51
2022-11-27T03:28:37.740Z,1023.56
2022-11-27T03:29:37.741Z,1023.57
2022-11-27T03:30:37.819Z,1023.50
2022-11-27T03:31:37.802Z,1023.51
2022-11-27T03:32:37.736Z,1023.54
2022-11-27T03:33:37.746Z,1023.54
2022-11-27T03:34:37.888Z,1023.52
2022-11-27T03:35:37.747Z,1023.49
2022-11-27T03:36:37.734Z,1023.49
2022-11-27T03:37:37.708Z,1023.51
2022-11-27T03:38:37.720Z,1023.54
2022-11-27T03:39:37.714Z,1023.55
2022-11-27T03:40:37.710Z,1023.54
2022-11-27T03:41:37.720Z,1023.54
2022-11-27T03:42:37.710Z,1023.51
2022-11-27T03:43:37.702Z,1023.49
2022-11-27T03:44:37.821Z,1023.53
2022-11-27T03:45:37.688Z,1023.50
2022-11-27T03:46:37.913Z,1023.53
2022-11-27T03:47:37.736Z,1023.49
2022-11-27T03:48:37.688Z,1023.53
2022-11-27T03:49:37.690Z,1023.53
2022-11-27T03:50:37.675Z,1023.50
2022-11-27T03:51:37.673Z,1023.56
2022-11-27T03:52:37.694Z,1023.54
2022-11-27T03:53:37.681Z,1023.58
2022-11-27T03:54:37.826Z,1023.54
2022-11-27T03:55:37.688Z,1023.55
2022-11-27T03:56:37.675Z,1023.50
2022-11-27T03:57:37.654Z,1023.52
2022-11-27T03:58:37.654Z,1023.46
2022-11-27T03:59:45.345Z,1023.47
2022-11-27T04:00:37.657Z,1023.48
2022-11-27T04:01:37.764Z,1023.50
2022-11-27T04:02:37.727Z,1023.46
2022-11-27T04:03:37.684Z,1023.50
2022-11-27T04:04:37.774Z,1023.47
2022-11-27T04:05:37.648Z,1023.55
2022-11-27T04:06:37.630Z,1023.48
2022-11-27T04:07:37.684Z,1023.54
2022-11-27T04:08:37.619Z,1023.54
2022-11-27T04:09:37.620Z,1023.50
2022-11-27T04:10:37.624Z,1023.49
2022-11-27T04:11:37.629Z,1023.52
2022-11-27T04:12:37.605Z,1023.47
2022-11-27T04:13:37.600Z,1023.45
2022-11-27T04:14:37.758Z,1023.44
2022-11-27T04:15:37.625Z,1023.45
2022-11-27T04:16:37.650Z,1023.41
2022-11-27T04:17:37.606Z,1023.45
2022-11-27T04:18:37.690Z,1023.39
2022-11-27T04:19:37.588Z,1023.40
2022-11-27T04:20:37.587Z,1023.44
2022-11-27T04:21:37.599Z,1023.41
2022-11-27T04:22:37.573Z,1023.45
2022-11-27T04:23:37.594Z,1023.46
2022-11-27T04:24:37.766Z,1023.47
2022-11-27T04:25:37.577Z,1023.46
2022-11-27T04:26:37.575Z,1023.47
2022-11-27T04:27:37.556Z,1023.47
2022-11-27T04:28:37.570Z,1023.52
2022-11-27T04:29:37.553Z,1023.49
2022-11-27T04:30:37.550Z,1023.52
2022-11-27T04:31:37.607Z,1023.56
2022-11-27T04:32:37.539Z,1023.59
2022-11-27T04:33:37.545Z,1023.56
2022-11-27T04:34:37.869Z,1023.55
2022-11-27T04:35:37.551Z,1023.56
2022-11-27T04:36:39.515Z,1023.50
2022-11-27T04:37:37.524Z,1023.43
2022-11-27T04:38:37.528Z,1023.52
2022-11-27T04:39:37.531Z,1023.50
2022-11-27T04:40:37.515Z,1023.46
2022-11-27T04:41:37.517Z,1023.43
2022-11-27T04:42:37.515Z,1023.41
2022-11-27T04:43:37.513Z,1023.44
2022-11-27T04:44:37.666Z,1023.43
2022-11-27T04:45:37.510Z,1023.47
2022-11-27T04:46:37.563Z,1023.47
2022-11-27T04:47:37.503Z,1023.46
2022-11-27T04:48:37.488Z,1023.48
2022-11-27T04:49:37.497Z,1023.47
2022-11-27T04:50:37.593Z,1023.47
2022-11-27T04:51:37.494Z,1023.45
2022-11-27T04:52:37.487Z,1023.44
2022-11-27T04:53:37.487Z,1023.47
2022-11-27T04:54:37.469Z,1023.41
2022-11-27T04:55:37.468Z,1023.41
2022-11-27T04:56:37.485Z,1023.40
2022-11-27T04:57:37.468Z,1023.47
2022-11-27T04:58:37.461Z,1023.45
2022-11-27T04:59:37.475Z,1023.47
2022-11-27T05:00:37.503Z,1023.43
2022-11-27T05:01:37.456Z,1023.44
2022-11-27T05:02:37.482Z,1023.47
2022-11-27T05:03:37.476Z,1023.48
2022-11-27T05:04:37.747Z,1023.46
2022-11-27T05:05:37.461Z,1023.40
2022-11-27T05:06:37.520Z,1023.44
2022-11-27T05:07:37.496Z,1023.41
2022-11-27T05:08:37.440Z,1023.46
2022-11-27T05:09:37.456Z,1023.43
2022-11-27T05:10:37.422Z,1023.46
2022-11-27T05:11:37.417Z,1023.47
2022-11-27T05:12:37.415Z,1023.49
2022-11-27T05:13:37.438Z,1023.50
2022-11-27T05:14:37.668Z,1023.45
2022-11-27T05:15:37.425Z,1023.45
2022-11-27T05:16:37.501Z,1023.45
2022-11-27T05:17:37.417Z,1023.46
2022-11-27T05:18:37.475Z,1023.44
2022-11-27T05:19:37.456Z,1023.45
2022-11-27T05:20:37.491Z,1023.47
2022-11-27T05:21:37.482Z,1023.45
2022-11-27T05:22:37.481Z,1023.49
2022-11-27T05:23:37.397Z,1023.52
2022-11-27T05:24:37.560Z,1023.50
2022-11-27T05:25:37.424Z,1023.52
2022-11-27T05:26:37.363Z,1023.54
2022-11-27T05:27:37.410Z,1023.50
2022-11-27T05:28:37.382Z,1023.51
2022-11-27T05:29:37.380Z,1023.48
2022-11-27T05:30:37.371Z,1023.53
2022-11-27T05:31:37.421Z,1023.52
2022-11-27T05:32:37.363Z,1023.49
2022-11-27T05:33:37.354Z,1023.54
2022-11-27T05:34:37.432Z,1023.51
2022-11-27T05:35:37.343Z,1023.51
2022-11-27T05:36:37.359Z,1023.51
2022-11-27T05:37:37.345Z,1023.49
2022-11-27T05:38:37.424Z,1023.48
2022-11-27T05:39:37.350Z,1023.50
2022-11-27T05:40:37.335Z,1023.56
2022-11-27T05:41:37.367Z,1023.53
2022-11-27T05:42:37.332Z,1023.56
2022-11-27T05:43:37.329Z,1023.58
2022-11-27T05:44:37.359Z,1023.52
2022-11-27T05:45:37.311Z,1023.53
2022-11-27T05:46:37.364Z,1023.54
2022-11-27T05:47:37.325Z,1023.56
2022-11-27T05:48:37.311Z,1023.55
2022-11-27T05:49:37.304Z,1023.52
2022-11-27T05:50:37.301Z,1023.56
2022-11-27T05:51:37.309Z,1023.58
2022-11-27T05:52:37.296Z,1023.53
2022-11-27T05:53:37.298Z,1023.51
2022-11-27T05:54:37.550Z,1023.47
2022-11-27T05:55:37.294Z,1023.44
2022-11-27T05:56:37.290Z,1023.41
2022-11-27T05:57:37.297Z,1023.43
2022-11-27T05:58:37.272Z,1023.39
2022-11-27T05:59:37.271Z,1023.34
2022-11-27T06:00:37.268Z,1023.34
2022-11-27T06:01:37.315Z,1023.27
2022-11-27T06:02:37.485Z,1023.27
2022-11-27T06:03:37.334Z,1023.29
2022-11-27T06:04:37.309Z,1023.27
2022-11-27T06:05:37.254Z,1023.28
2022-11-27T06:06:37.249Z,1023.26
2022-11-27T06:07:37.301Z,1023.24
2022-11-27T06:08:37.234Z,1023.24
2022-11-27T06:09:37.248Z,1023.21
2022-11-27T06:10:37.336Z,1023.17
2022-11-27T06:11:37.235Z,1023.22
2022-11-27T06:12:37.253Z,1023.20
2022-11-27T06:13:37.213Z,1023.21
2022-11-27T06:14:37.248Z,1023.20
2022-11-27T06:15:37.221Z,1023.18
2022-11-27T06:16:37.270Z,1023.20
2022-11-27T06:17:37.201Z,1023.15
2022-11-27T06:18:37.225Z,1023.15
2022-11-27T06:19:37.211Z,1023.15
2022-11-27T06:20:42.208Z,1023.17
2022-11-27T06:21:37.187Z,1023.16
2022-11-27T06:22:37.214Z,1023.11
2022-11-27T06:23:37.280Z,1023.08
2022-11-27T06:24:37.191Z,1023.08
2022-11-27T06:25:37.184Z,1023.02
2022-11-27T06:26:37.281Z,1023.03
2022-11-27T06:27:37.175Z,1023.05
2022-11-27T06:28:37.165Z,1023.05
2022-11-27T06:29:37.175Z,1023.14
2022-11-27T06:30:37.167Z,1023.10
2022-11-27T06:31:37.258Z,1023.11
2022-11-27T06:32:37.154Z,1023.10
2022-11-27T06:33:37.155Z,1023.12
2022-11-27T06:34:37.247Z,1023.08
2022-11-27T06:35:37.149Z,1023.12
2022-11-27T06:36:37.166Z,1023.13
2022-11-27T06:37:37.165Z,1023.13
2022-11-27T06:38:37.139Z,1023.12
2022-11-27T06:39:37.138Z,1023.07
2022-11-27T06:40:37.122Z,1023.13
2022-11-27T06:41:37.133Z,1023.09
2022-11-27T06:42:37.304Z,1023.10
2022-11-27T06:43:37.125Z,1023.15
2022-11-27T06:44:37.129Z,1023.13
2022-11-27T06:45:37.182Z,1023.15
2022-11-27T06:46:37.103Z,1023.15
2022-11-27T06:47:37.094Z,1023.14
2022-11-27T06:48:37.118Z,1023.12
2022-11-27T06:49:37.100Z,1023.07
2022-11-27T06:50:37.103Z,1023.09
2022-11-27T06:51:37.093Z,1023.04
2022-11-27T06:52:40.332Z,1023.09
2022-11-27T06:53:37.080Z,1023.12
2022-11-27T06:54:37.093Z,1023.15
2022-11-27T06:55:37.072Z,1023.15
2022-11-27T06:56:37.072Z,1023.14
2022-11-27T06:57:37.061Z,1023.20
2022-11-27T06:58:37.158Z,1023.20
2022-11-27T06:59:37.066Z,1023.18
2022-11-27T07:00:37.097Z,1023.21
2022-11-27T07:01:37.083Z,1023.19
2022-11-27T07:02:37.088Z,1023.23
2022-11-27T07:03:37.039Z,1023.20
2022-11-27T07:04:37.055Z,1023.23
2022-11-27T07:05:37.038Z,1023.17
2022-11-27T07:06:37.039Z,1023.17
2022-11-27T07:07:41.080Z,1023.15
2022-11-27T07:08:37.043Z,1023.14
2022-11-27T07:09:37.029Z,1023.13
2022-11-27T07:10:37.026Z,1023.14
2022-11-27T07:11:37.010Z,1023.17
2022-11-27T07:12:37.018Z,1023.09
2022-11-27T07:13:37.014Z,1023.06
2022-11-27T07:14:37.388Z,1023.04
2022-11-27T07:15:37.004Z,1022.95
2022-11-27T07:16:37.036Z,1022.98
2022-11-27T07:17:37.004Z,1022.93
2022-11-27T07:18:36.985Z,1022.83
2022-11-27T07:19:36.984Z,1022.89
2022-11-27T07:20:36.997Z,1022.84
2022-11-27T07:21:36.976Z,1022.87
2022-11-27T07:22:36.972Z,1022.92
2022-11-27T07:23:36.966Z,1022.91
2022-11-27T07:24:36.990Z,1022.95
2022-11-27T07:25:36.971Z,1022.92
2022-11-27T07:26:36.964Z,1022.90
2022-11-27T07:27:36.967Z,1022.86
2022-11-27T07:28:36.974Z,1022.86
2022-11-27T07:29:36.967Z,1022.86
2022-11-27T07:30:37.037Z,1022.89
2022-11-27T07:31:37.014Z,1022.95
2022-11-27T07:32:36.949Z,1022.92
2022-11-27T07:33:36.944Z,1022.91
2022-11-27T07:34:36.943Z,1022.96
2022-11-27T07:35:36.932Z,1022.94
2022-11-27T07:36:36.920Z,1022.93
2022-11-27T07:37:36.931Z,1022.93
2022-11-27T07:38:36.927Z,1022.94
2022-11-27T07:40:01.000Z,1022.92
2022-11-27T07:40:36.939Z,1022.87
2022-11-27T07:41:36.919Z,1022.85
2022-11-27T07:42:38.438Z,1022.90
2022-11-27T07:43:36.909Z,1022.91
2022-11-27T07:44:36.901Z,1022.89
2022-11-27T07:45:36.949Z,1022.96
2022-11-27T07:46:36.990Z,1022.94
2022-11-27T07:47:36.894Z,1022.90
2022-11-27T07:48:36.897Z,1022.95
2022-11-27T07:49:36.890Z,1022.90
2022-11-27T07:50:36.901Z,1022.91
2022-11-27T07:51:36.881Z,1022.91
2022-11-27T07:52:41.502Z,1022.87
2022-11-27T07:53:36.870Z,1022.88
2022-11-27T07:54:36.874Z,1022.86
2022-11-27T07:55:36.883Z,1022.87
2022-11-27T07:56:36.866Z,1022.84
2022-11-27T07:57:36.852Z,1022.85
2022-11-27T07:58:36.853Z,1022.84
2022-11-27T07:59:36.869Z,1022.87
2022-11-27T08:00:36.923Z,1022.80
2022-11-27T08:01:36.893Z,1022.84
2022-11-27T08:02:36.935Z,1022.85
2022-11-27T08:03:36.840Z,1022.85
2022-11-27T08:04:36.937Z,1022.86
2022-11-27T08:05:36.852Z,1022.87
2022-11-27T08:06:36.834Z,1022.85
2022-11-27T08:07:36.861Z,1022.84
2022-11-27T08:08:36.820Z,1022.90
2022-11-27T08:09:36.835Z,1022.79
2022-11-27T08:10:36.867Z,1022.87
2022-11-27T08:11:36.818Z,1022.88
2022-11-27T08:12:36.818Z,1022.88
2022-11-27T08:13:36.820Z,1022.87
2022-11-27T08:14:36.805Z,1022.89
2022-11-27T08:15:36.822Z,1022.85
2022-11-27T08:16:36.952Z,1022.88
2022-11-27T08:17:36.812Z,1022.80
2022-11-27T08:18:36.890Z,1022.85
2022-11-27T08:19:36.786Z,1022.78
2022-11-27T08:20:36.797Z,1022.81
2022-11-27T08:21:36.794Z,1022.84
2022-11-27T08:22:36.802Z,1022.86
2022-11-27T08:23:36.844Z,1022.87
2022-11-27T08:24:36.783Z,1022.88
2022-11-27T08:25:36.780Z,1022.96
2022-11-27T08:26:36.768Z,1022.91
2022-11-27T08:27:36.794Z,1022.91
2022-11-27T08:28:36.763Z,1022.89
2022-11-27T08:29:36.766Z,1022.89
2022-11-27T08:30:36.761Z,1022.87
2022-11-27T08:31:36.829Z,1022.92
2022-11-27T08:32:36.754Z,1022.89
2022-11-27T08:33:36.783Z,1022.86
2022-11-27T08:34:36.853Z,1022.84
2022-11-27T08:35:36.752Z,1022.88
2022-11-27T08:36:36.757Z,1022.84
2022-11-27T08:37:36.760Z,1022.79
2022-11-27T08:38:36.743Z,1022.77
2022-11-27T08:39:36.763Z,1022.82
2022-11-27T08:40:36.753Z,1022.82
2022-11-27T08:41:36.743Z,1022.81
2022-11-27T08:42:36.742Z,1022.77
2022-11-27T08:43:36.739Z,1022.79
2022-11-27T08:44:36.758Z,1022.75
2022-11-27T08:45:36.825Z,1022.74
2022-11-27T08:46:36.721Z,1022.74
2022-11-27T08:47:36.727Z,1022.78
2022-11-27T08:48:36.739Z,1022.78
2022-11-27T08:49:39.134Z,1022.78
2022-11-27T08:50:36.807Z,1022.79
2022-11-27T08:51:36.730Z,1022.84
2022-11-27T08:52:36.727Z,1022.72
2022-11-27T08:53:36.769Z,1022.76
2022-11-27T08:54:36.725Z,1022.75
2022-11-27T08:55:36.707Z,1022.74
2022-11-27T08:56:36.712Z,1022.77
2022-11-27T08:57:36.694Z,1022.75
2022-11-27T08:58:36.707Z,1022.71
2022-11-27T08:59:36.695Z,1022.74
2022-11-27T09:00:36.728Z,1022.73
2022-11-27T09:01:36.753Z,1022.79
2022-11-27T09:02:36.708Z,1022.78
2022-11-27T09:03:36.745Z,1022.75
2022-11-27T09:04:36.733Z,1022.75
2022-11-27T09:05:36.698Z,1022.72
2022-11-27T09:06:36.782Z,1022.67
2022-11-27T09:07:36.707Z,1022.68
2022-11-27T09:08:36.682Z,1022.72
2022-11-27T09:09:36.680Z,1022.74
2022-11-27T09:10:36.751Z,1022.66
2022-11-27T09:11:36.675Z,1022.68
2022-11-27T09:12:40.616Z,1022.63
2022-11-27T09:13:36.666Z,1022.63
2022-11-27T09:14:36.669Z,1022.66
2022-11-27T09:15:36.664Z,1022.71
2022-11-27T09:16:36.805Z,1022.70
2022-11-27T09:17:36.731Z,1022.68
2022-11-27T09:18:36.701Z,1022.72
2022-11-27T09:19:36.652Z,1022.70
2022-11-27T09:20:36.654Z,1022.70
2022-11-27T09:21:36.813Z,1022.66
2022-11-27T09:22:36.785Z,1022.65
2022-11-27T09:23:36.737Z,1022.67
2022-11-27T09:24:36.631Z,1022.64
2022-11-27T09:25:36.744Z,1022.55
2022-11-27T09:26:36.722Z,1022.56
2022-11-27T09:27:36.932Z,1022.57
2022-11-27T09:28:37.414Z,1022.54
2022-11-27T09:29:36.633Z,1022.53
2022-11-27T09:30:36.618Z,1022.63
2022-11-27T09:31:36.671Z,1022.54
2022-11-27T09:32:36.649Z,1022.58
2022-11-27T09:33:36.637Z,1022.58
2022-11-27T09:34:37.679Z,1022.51
2022-11-27T09:35:36.636Z,1022.56
2022-11-27T09:36:36.629Z,1022.58
2022-11-27T09:37:36.617Z,1022.56
2022-11-27T09:38:36.720Z,1022.59
2022-11-27T09:39:36.601Z,1022.53
2022-11-27T09:40:36.601Z,1022.53
2022-11-27T09:41:37.394Z,1022.58
2022-11-27T09:42:36.592Z,1022.50
2022-11-27T09:43:36.587Z,1022.53
2022-11-27T09:44:36.639Z,1022.50
2022-11-27T09:45:36.995Z,1022.41
2022-11-27T09:46:36.581Z,1022.45
2022-11-27T09:47:41.273Z,1022.40
2022-11-27T09:48:37.353Z,1022.40
2022-11-27T09:49:36.626Z,1022.36
2022-11-27T09:50:37.858Z,1022.36
2022-11-27T09:51:37.117Z,1022.34
2022-11-27T09:52:36.617Z,1022.33
2022-11-27T09:53:36.719Z,1022.36
2022-11-27T09:54:36.799Z,1022.34
2022-11-27T09:55:36.568Z,1022.32
2022-11-27T09:56:36.604Z,1022.35
2022-11-27T09:57:36.579Z,1022.31
2022-11-27T09:58:36.568Z,1022.28
2022-11-27T09:59:36.564Z,1022.27
2022-11-27T10:00:36.575Z,1022.31
2022-11-27T10:01:45.292Z,1022.29
2022-11-27T10:02:36.684Z,1022.32
2022-11-27T10:03:36.572Z,1022.36
2022-11-27T10:04:57.924Z,1022.36
2022-11-27T10:05:36.565Z,1022.38
2022-11-27T10:06:36.539Z,1022.38
2022-11-27T10:07:36.706Z,1022.40
2022-11-27T10:08:36.774Z,1022.47
2022-11-27T10:09:36.538Z,1022.47
2022-11-27T10:10:36.665Z,1022.43
2022-11-27T10:43:28.564Z,1022.10
2022-11-27T10:44:28.509Z,1022.03
2022-11-27T10:45:28.501Z,1022.03
2022-11-27T10:46:28.500Z,1022.04
2022-11-27T10:47:32.265Z,1021.97
2022-11-27T10:48:28.459Z,1022.02
2022-11-27T10:49:28.471Z,1021.97
2022-11-27T10:50:28.461Z,1021.98
2022-11-27T10:51:28.442Z,1021.95
2022-11-27T10:52:28.443Z,1022.03
2022-11-27T10:53:29.105Z,1022.01
2022-11-27T10:54:28.453Z,1021.99
2022-11-27T10:55:28.424Z,1021.97
2022-11-27T10:56:28.425Z,1021.93
2022-11-27T10:57:28.421Z,1021.97
2022-11-27T10:58:28.435Z,1021.94
2022-11-27T10:59:32.999Z,1021.90
2022-11-27T11:00:28.413Z,1021.91
2022-11-27T11:01:28.486Z,1021.92
2022-11-27T11:02:28.504Z,1021.94
2022-11-27T11:03:28.414Z,1021.94
2022-11-27T11:04:43.786Z,1021.92
2022-11-27T11:05:41.439Z,1021.89
2022-11-27T11:06:28.598Z,1021.88
2022-11-27T11:07:28.410Z,1021.83
2022-11-27T11:08:28.392Z,1021.79
2022-11-27T11:09:28.410Z,1021.76
2022-11-27T11:10:28.384Z,1021.76
2022-11-27T11:11:28.381Z,1021.79
2022-11-27T11:12:28.377Z,1021.76
2022-11-27T11:13:28.392Z,1021.86
2022-11-27T11:14:28.399Z,1021.85
2022-11-27T11:15:28.469Z,1021.93
2022-11-27T11:16:33.311Z,1021.95
2022-11-27T11:17:28.444Z,1021.97
2022-11-27T11:18:28.362Z,1022.01
2022-11-27T11:19:28.366Z,1022.01
2022-11-27T11:20:28.370Z,1022.03
2022-11-27T11:21:28.350Z,1021.96
2022-11-27T11:22:28.352Z,1021.93
2022-11-27T11:23:28.357Z,1021.84
2022-11-27T11:24:28.358Z,1021.85
2022-11-27T11:25:28.352Z,1021.78
2022-11-27T11:26:28.368Z,1021.79
2022-11-27T11:27:28.350Z,1021.78
2022-11-27T11:28:28.345Z,1021.77
2022-11-27T11:29:28.337Z,1021.86
2022-11-27T11:30:28.343Z,1021.85
2022-11-27T11:31:28.528Z,1021.80
2022-11-27T11:32:28.329Z,1021.78
2022-11-27T11:33:28.325Z,1021.75
2022-11-27T11:34:28.320Z,1021.70
2022-11-27T11:35:28.333Z,1021.65
2022-11-27T11:36:28.337Z,1021.62
2022-11-27T11:37:28.334Z,1021.68
2022-11-27T11:38:28.310Z,1021.68
2022-11-27T11:39:28.335Z,1021.71
2022-11-27T11:40:28.310Z,1021.74
2022-11-27T11:41:28.331Z,1021.70
2022-11-27T11:42:28.306Z,1021.70
2022-11-27T11:43:28.309Z,1021.76
2022-11-27T11:44:28.390Z,1021.72
2022-11-27T11:45:32.283Z,1021.74
2022-11-27T11:46:28.413Z,1021.71
2022-11-27T11:47:28.398Z,1021.72
2022-11-27T11:48:28.300Z,1021.69
2022-11-27T11:49:28.302Z,1021.66
2022-11-27T11:50:28.288Z,1021.65
2022-11-27T11:51:29.500Z,1021.64
2022-11-27T11:52:28.305Z,1021.64
2022-11-27T11:53:28.294Z,1021.62
2022-11-27T11:54:28.290Z,1021.62
2022-11-27T11:55:28.290Z,1021.57
2022-11-27T11:56:28.285Z,1021.60
2022-11-27T11:57:28.289Z,1021.57
2022-11-27T11:58:28.269Z,1021.58
2022-11-27T11:59:28.301Z,1021.58
2022-11-27T12:00:32.348Z,1021.58
2022-11-27T12:01:28.271Z,1021.51
2022-11-27T12:02:28.350Z,1021.54
2022-11-27T12:03:28.351Z,1021.54
2022-11-27T12:04:28.327Z,1021.56
2022-11-27T12:05:28.265Z,1021.52
2022-11-27T12:06:28.298Z,1021.52
2022-11-27T12:07:28.310Z,1021.47
2022-11-27T12:08:28.254Z,1021.49
2022-11-27T12:09:28.247Z,1021.48
2022-11-27T12:10:28.246Z,1021.46
2022-11-27T12:11:28.260Z,1021.47
2022-11-27T12:12:28.242Z,1021.44
2022-11-27T12:13:33.020Z,1021.42
2022-11-27T12:14:28.266Z,1021.42
2022-11-27T12:15:28.244Z,1021.42
2022-11-27T12:16:28.284Z,1021.39
2022-11-27T12:17:28.305Z,1021.42
2022-11-27T12:18:28.242Z,1021.41
2022-11-27T12:19:28.398Z,1021.36
2022-11-27T12:20:29.121Z,1021.28
2022-11-27T12:21:28.228Z,1021.29
2022-11-27T12:22:28.259Z,1021.29
2022-11-27T12:23:28.216Z,1021.19
2022-11-27T12:24:28.215Z,1021.17
2022-11-27T12:25:28.291Z,1021.15
2022-11-27T12:26:28.216Z,1021.08
2022-11-27T12:27:28.220Z,1021.07
2022-11-27T12:28:28.231Z,1021.05
2022-11-27T12:29:28.207Z,1021.05
2022-11-27T12:30:28.214Z,1021.04
2022-11-27T12:31:28.275Z,1021.03
2022-11-27T12:32:28.198Z,1021.03
2022-11-27T12:33:28.232Z,1021.02
2022-11-27T12:34:28.206Z,1021.02
2022-11-27T12:35:28.290Z,1021.03
2022-11-27T12:36:28.191Z,1020.96
2022-11-27T12:37:28.205Z,1020.94